Time;durP1;ratioP1;P1;durP2;ratioP2;P2;SDS_P1;SDS_P2;PMS_P1;PMS_P2;Temp;Humidity;BMP_temperature;BMP_pressure;BME280_temperature;BME280_humidity;BME280_pressure;Samples;Min_cycle;Max_cycle;Signal;HPM_P1;HPM_P2
2022/09/28 00:01:32;;;;;;;7.60;5.30;;;;;;;12.64;100.00;99442.75;5091479;28;20027;-78
2022/09/28 00:03:58;;;;;;;10.48;5.75;;;;;;;12.58;100.00;99437.50;5062114;28;20032;-78
2022/09/28 00:06:25;;;;;;;7.20;5.90;;;;;;;12.49;100.00;99447.09;5075264;28;20035;-78
2022/09/28 00:08:51;;;;;;;7.82;5.55;;;;;;;12.42;100.00;99445.38;5093060;28;20036;-78
2022/09/28 00:11:19;;;;;;;7.00;5.53;;;;;;;12.41;100.00;99440.22;5074756;28;20054;-79
2022/09/28 00:13:49;;;;;;;6.55;5.30;;;;;;;12.31;100.00;99451.66;5060072;28;20035;-78
2022/09/28 00:16:17;;;;;;;8.05;5.75;;;;;;;12.27;100.00;99438.91;5091353;28;20039;-78
2022/09/28 00:18:44;;;;;;;6.95;5.63;;;;;;;12.09;100.00;99419.19;5091613;28;20038;-78
2022/09/28 00:21:12;;;;;;;7.53;5.70;;;;;;;12.19;100.00;99430.16;5074819;28;20030;-78
2022/09/28 00:24:11;;;;;;;8.95;5.43;;;;;;;12.25;100.00;99433.78;5090946;28;20449;-78
2022/09/28 00:26:25;;;;;;;7.65;5.50;;;;;;;12.18;100.00;99433.88;5091767;28;20032;-77
2022/09/28 00:28:51;;;;;;;7.93;5.70;;;;;;;12.19;100.00;99429.34;5091677;28;20031;-78
2022/09/28 00:31:17;;;;;;;6.65;5.50;;;;;;;11.98;100.00;99404.69;5091149;28;20089;-78
2022/09/28 00:33:43;;;;;;;7.20;5.50;;;;;;;12.21;100.00;99443.38;5074093;28;20082;-78
2022/09/28 00:36:08;;;;;;;9.18;5.95;;;;;;;12.23;100.00;99436.69;5091020;28;20445;-78
2022/09/28 00:38:35;;;;;;;6.78;6.07;;;;;;;12.32;100.00;99441.69;5091052;28;20512;-78
2022/09/28 00:41:04;;;;;;;7.30;6.13;;;;;;;12.23;100.00;99415.13;5092498;28;20032;-78
2022/09/28 00:43:30;;;;;;;6.15;5.55;;;;;;;12.39;100.00;99440.47;5107113;27;20085;-78
2022/09/28 00:46:01;;;;;;;8.05;6.20;;;;;;;12.46;100.00;99437.63;5057939;28;20097;-78
2022/09/28 00:48:30;;;;;;;8.52;5.93;;;;;;;12.48;100.00;99432.78;5092039;28;20039;-78
2022/09/28 00:50:58;;;;;;;6.90;6.15;;;;;;;11.98;100.00;99347.28;5090706;28;20120;-78
2022/09/28 00:53:29;;;;;;;8.18;6.28;;;;;;;12.52;100.00;99428.53;5090284;28;20027;-78
2022/09/28 00:56:02;;;;;;;8.55;6.22;;;;;;;12.55;100.00;99435.31;5092015;28;20444;-78
2022/09/28 00:58:32;;;;;;;10.25;6.10;;;;;;;12.32;100.00;99403.94;5090979;28;20550;-78
2022/09/28 01:00:58;;;;;;;7.30;6.25;;;;;;;12.39;100.00;99416.19;5092260;28;20087;-78
2022/09/28 01:03:26;;;;;;;7.60;6.75;;;;;;;12.48;100.00;99432.78;5091476;28;20051;-78
2022/09/28 01:05:54;;;;;;;9.90;6.60;;;;;;;12.44;100.00;99424.34;5091184;28;20128;-78
2022/09/28 01:08:20;;;;;;;9.15;7.30;;;;;;;12.40;100.00;99427.81;5091026;28;20513;-78
2022/09/28 01:10:50;;;;;;;7.65;6.65;;;;;;;12.42;100.00;99423.81;5094011;28;20078;-78
2022/09/28 01:13:16;;;;;;;9.73;7.13;;;;;;;12.44;100.00;99410.88;5094640;28;20027;-78
2022/09/28 01:16:06;;;;;;;9.55;6.85;;;;;;;12.45;100.00;99431.41;5077341;28;20060;-78
2022/09/28 01:19:01;;;;;;;8.63;6.35;;;;;;;12.46;100.00;99437.63;5094568;28;20050;-78
2022/09/28 01:21:26;;;;;;;7.78;6.57;;;;;;;12.37;100.00;99429.09;5094028;28;20126;-78
2022/09/28 01:23:52;;;;;;;8.35;6.00;;;;;;;12.45;100.00;99430.59;5060714;28;20028;-78
2022/09/28 01:26:23;;;;;;;7.35;6.60;;;;;;;12.36;100.00;99415.88;5094151;28;20023;-78
2022/09/28 01:28:56;;;;;;;6.80;6.10;;;;;;;12.43;100.00;99424.63;5092951;28;20101;-78
2022/09/28 01:31:30;;;;;;;8.40;6.63;;;;;;;12.43;100.00;99417.34;5093791;28;20497;-78
2022/09/28 01:34:13;;;;;;;9.88;6.43;;;;;;;12.50;100.00;99429.84;5092702;28;20035;-78
2022/09/28 01:36:47;;;;;;;9.00;6.57;;;;;;;12.48;100.00;99416.59;5094013;28;20017;-78
2022/09/28 01:39:19;;;;;;;8.32;6.35;;;;;;;12.42;100.00;99420.28;5092309;28;20059;-79
2022/09/28 01:41:50;;;;;;;8.05;6.72;;;;;;;12.29;100.00;99401.72;5093294;28;20036;-78
2022/09/28 01:44:18;;;;;;;7.07;6.38;;;;;;;12.39;100.00;99416.19;5094184;28;20429;-78
2022/09/28 01:46:48;;;;;;;7.43;6.50;;;;;;;12.44;100.00;99427.06;5093743;28;20040;-78
2022/09/28 01:49:20;;;;;;;8.50;6.90;;;;;;;12.17;100.00;99372.13;5094464;28;20031;-78
2022/09/28 01:51:58;;;;;;;8.50;6.97;;;;;;;12.49;100.00;99423.63;5093409;28;20474;-78
2022/09/28 01:54:35;;;;;;;10.55;7.05;;;;;;;12.48;100.00;99418.47;5093975;28;20398;-78
2022/09/28 01:57:08;;;;;;;8.00;6.32;;;;;;;12.34;100.00;99399.91;5094925;28;20080;-78
2022/09/28 01:59:37;;;;;;;11.10;6.90;;;;;;;12.50;100.00;99419.88;5094112;28;20032;-78
2022/09/28 02:02:09;;;;;;;8.35;6.70;;;;;;;12.48;100.00;99427.38;5094831;28;20034;-78
2022/09/28 02:04:48;;;;;;;6.88;6.18;;;;;;;12.30;100.00;99395.25;5076674;28;20543;-78
2022/09/28 02:07:19;;;;;;;8.75;6.65;;;;;;;12.48;100.00;99427.38;5093799;28;20040;-78
2022/09/28 02:09:57;;;;;;;7.57;6.38;;;;;;;12.44;100.00;99410.06;5094791;28;20517;-78
2022/09/28 02:13:02;;;;;;;7.95;6.63;;;;;;;12.20;100.00;99387.81;5095370;28;20027;-78
2022/09/28 02:15:44;;;;;;;7.05;6.30;;;;;;;12.46;100.00;99424.94;5060424;28;20028;-78
2022/09/28 02:18:10;;;;;;;6.68;5.68;;;;;;;12.48;100.00;99415.78;5095142;28;20032;-77
2022/09/28 02:20:41;;;;;;;5.80;5.20;;;;;;;12.47;100.00;99423.06;5094930;28;20040;-77
2022/09/28 02:23:08;;;;;;;5.93;5.03;;;;;;;12.13;100.00;99366.41;5094023;28;20028;-78
2022/09/28 02:25:45;;;;;;;7.25;5.40;;;;;;;12.31;100.00;99392.31;5076737;28;20051;-78
2022/09/28 02:28:12;;;;;;;6.35;5.45;;;;;;;12.45;100.00;99417.91;5093900;28;20036;-78
2022/09/28 02:30:40;;;;;;;6.97;5.75;;;;;;;12.35;100.00;99403.44;5076971;28;20032;-78
2022/09/28 02:33:17;;;;;;;9.30;5.75;;;;;;;12.55;100.00;99425.34;5093294;28;20034;-78
2022/09/28 02:35:43;;;;;;;7.85;6.40;;;;;;;12.38;100.00;99400.25;5092981;28;20020;-78
2022/09/28 02:38:13;;;;;;;8.23;6.88;;;;;;;12.46;100.00;99416.84;5093075;28;20034;-78
2022/09/28 02:40:39;;;;;;;8.10;6.88;;;;;;;12.41;100.00;99395.16;5093219;28;20444;-78
2022/09/28 02:43:30;;;;;;;7.70;6.78;;;;;;;12.54;100.00;99409.41;5076274;28;20032;-78
2022/09/28 02:46:20;;;;;;;8.27;7.00;;;;;;;12.52;100.00;99401.56;5063155;28;20052;-78
2022/09/28 02:48:52;;;;;;;8.15;6.78;;;;;;;12.49;100.00;99407.44;5092742;28;20498;-78
2022/09/28 02:51:20;;;;;;;6.88;6.18;;;;;;;12.52;100.00;99400.75;5092741;28;20035;-78
2022/09/28 02:54:20;;;;;;;8.90;6.90;;;;;;;12.48;100.00;99403.09;5093928;28;20403;-78
2022/09/28 02:57:04;;;;;;;8.55;6.80;;;;;;;12.65;100.00;99411.22;5094266;28;20027;-78
2022/09/28 03:00:09;;;;;;;8.77;7.50;;;;;;;12.56;100.00;99418.06;5093409;28;20032;-78
2022/09/28 03:02:50;;;;;;;8.43;7.63;;;;;;;12.58;100.00;99422.16;5092926;28;20031;-78
2022/09/28 03:05:38;;;;;;;8.52;7.50;;;;;;;12.59;100.00;99417.59;5092668;28;20032;-78
2022/09/28 03:08:28;;;;;;;9.05;8.15;;;;;;;12.55;100.00;99413.72;5053436;28;20466;-78
2022/09/28 03:11:02;;;;;;;11.55;8.20;;;;;;;12.59;100.00;99422.97;5053715;28;20086;-78
2022/09/28 03:13:29;;;;;;;10.95;7.85;;;;;;;12.53;100.00;99413.97;5089082;28;20115;-79
2022/09/28 03:16:07;;;;;;;9.07;8.18;;;;;;;12.39;100.00;99407.28;5092514;28;20036;-78
2022/09/28 03:18:32;;;;;;;8.90;8.00;;;;;;;12.52;100.00;99423.16;5092556;28;20036;-78
2022/09/28 03:21:00;;;;;;;9.27;7.43;;;;;;;12.36;100.00;99388.91;5075262;28;20040;-78
2022/09/28 03:23:25;;;;;;;9.68;8.15;;;;;;;12.58;100.00;99421.31;5091614;28;20031;-78
2022/09/28 03:25:51;;;;;;;8.07;7.28;;;;;;;12.64;100.00;99431.13;5076503;28;20032;-78
2022/09/28 03:28:20;;;;;;;10.10;7.57;;;;;;;12.66;100.00;99434.41;5076000;28;20050;-78
2022/09/28 03:30:45;;;;;;;8.98;7.85;;;;;;;12.55;100.00;99419.97;5075854;28;20080;-78
2022/09/28 03:33:10;;;;;;;8.93;7.93;;;;;;;12.16;100.00;99338.16;5092659;28;20499;-78
2022/09/28 03:35:36;;;;;;;9.75;8.30;;;;;;;12.66;100.00;99424.44;5075991;28;20040;-78
2022/09/28 03:38:01;;;;;;;10.77;8.32;;;;;;;12.48;100.00;99392.31;5059914;28;20313;-78
2022/09/28 03:40:26;;;;;;;9.32;8.32;;;;;;;12.70;100.00;99422.88;5076993;28;20039;-79
2022/09/28 03:42:52;;;;;;;11.68;8.10;;;;;;;12.68;100.00;99418.78;5094640;28;20032;-78
2022/09/28 03:45:18;;;;;;;8.23;7.40;;;;;;;12.59;100.00;99421.09;5077089;28;20385;-78
2022/09/28 03:47:47;;;;;;;10.68;8.30;;;;;;;12.45;100.00;99385.53;5076478;28;20051;-78
2022/09/28 03:50:13;;;;;;;10.40;7.72;;;;;;;12.44;100.00;99400.06;5077019;28;20498;-78
2022/09/28 03:52:39;;;;;;;11.35;8.60;;;;;;;12.53;100.00;99397.78;5093736;28;20039;-78
2022/09/28 03:55:05;;;;;;;10.63;9.32;;;;;;;12.61;100.00;99428.94;5093443;28;20036;-78
2022/09/28 03:57:30;;;;;;;10.82;9.18;;;;;;;12.37;100.00;99368.94;5061307;28;20028;-78
2022/09/28 03:59:56;;;;;;;10.00;9.00;;;;;;;12.75;100.00;99421.31;5056520;28;20029;-78
2022/09/28 04:02:21;;;;;;;11.80;9.27;;;;;;;12.65;100.00;99428.22;5083615;28;20031;-78
2022/09/28 04:04:46;;;;;;;12.90;9.38;;;;;;;12.61;100.00;99410.84;5095440;28;20039;-78
2022/09/28 04:07:12;;;;;;;10.55;8.90;;;;;;;12.68;100.00;99416.94;5078052;28;20111;-79
2022/09/28 04:09:37;;;;;;;10.88;9.77;;;;;;;12.68;100.00;99422.31;5076743;28;20044;-78
2022/09/28 04:12:03;;;;;;;10.57;9.48;;;;;;;12.71;100.00;99418.28;5074686;28;20028;-79
2022/09/28 04:14:28;;;;;;;11.13;9.93;;;;;;;12.64;100.00;99415.75;5092250;28;20040;-78
2022/09/28 04:16:55;;;;;;;10.35;9.30;;;;;;;12.59;100.00;99418.41;5057395;28;20036;-77
2022/09/28 04:19:24;;;;;;;10.93;9.82;;;;;;;12.68;100.00;99422.31;5089975;28;20043;-77
2022/09/28 04:21:50;;;;;;;11.55;9.52;;;;;;;12.70;100.00;99422.06;5093913;28;20048;-77
2022/09/28 04:24:16;;;;;;;11.57;9.75;;;;;;;12.46;100.00;99380.97;5056350;28;20037;-78
2022/09/28 04:26:42;;;;;;;11.05;9.48;;;;;;;12.50;100.00;99394.78;5055746;28;20146;-78
2022/09/28 04:29:17;;;;;;;11.55;9.55;;;;;;;12.66;100.00;99416.34;5084248;28;20497;-79
2022/09/28 04:31:48;;;;;;;11.82;9.55;;;;;;;12.35;100.00;99357.56;5079604;28;20039;-77
2022/09/28 04:34:21;;;;;;;12.98;10.02;;;;;;;12.52;100.00;99408.84;5096627;28;20110;-77
2022/09/28 04:36:47;;;;;;;11.68;10.10;;;;;;;12.66;100.00;99424.44;5097241;28;20020;-77
2022/09/28 04:39:14;;;;;;;13.10;10.73;;;;;;;12.43;100.00;99393.06;5078580;28;20100;-78
2022/09/28 04:41:40;;;;;;;12.90;10.95;;;;;;;12.56;100.00;99408.09;5096393;28;20039;-77
2022/09/28 04:44:07;;;;;;;14.55;11.43;;;;;;;11.93;100.00;99293.28;5081920;28;20051;-79
2022/09/28 04:46:33;;;;;;;14.38;11.13;;;;;;;12.76;100.00;99423.78;5105290;28;20138;-78
2022/09/28 04:48:58;;;;;;;16.02;11.70;;;;;;;12.65;100.00;99432.81;5107890;28;20398;-78
2022/09/28 04:51:24;;;;;;;13.35;10.98;;;;;;;12.66;100.00;99435.25;5084551;28;20034;-77
2022/09/28 04:53:49;;;;;;;15.10;11.35;;;;;;;12.55;100.00;99413.72;5083167;28;20057;-78
2022/09/28 04:56:16;;;;;;;13.35;11.35;;;;;;;12.80;100.00;99434.91;5100695;28;20512;-78
2022/09/28 04:58:42;;;;;;;12.45;11.13;;;;;;;12.72;100.00;99438.84;5078683;28;20115;-77
2022/09/28 05:01:10;;;;;;;12.38;10.45;;;;;;;12.64;100.00;99431.94;5095942;28;20111;-77
2022/09/28 05:03:36;;;;;;;12.70;10.57;;;;;;;12.68;100.00;99438.53;5094712;28;20087;-78
2022/09/28 05:06:03;;;;;;;15.25;10.90;;;;;;;12.70;100.00;99439.06;5095257;28;20035;-77
2022/09/28 05:08:29;;;;;;;12.48;11.18;;;;;;;12.74;100.00;99436.69;5077017;28;20028;-78
2022/09/28 05:11:04;;;;;;;13.68;11.05;;;;;;;12.63;100.00;99426.81;5093949;28;20078;-77
2022/09/28 05:13:31;;;;;;;13.15;10.68;;;;;;;12.70;100.00;99440.94;5093399;28;20035;-77
2022/09/28 05:15:57;;;;;;;16.52;11.10;;;;;;;12.79;100.00;99444.06;5094583;28;20074;-78
2022/09/28 05:18:23;;;;;;;10.52;9.43;;;;;;;12.72;100.00;99444.25;5093369;28;20036;-77
2022/09/28 05:20:49;;;;;;;14.35;10.35;;;;;;;12.61;100.00;99402.75;5094344;28;20129;-77
2022/09/28 05:23:16;;;;;;;13.50;10.63;;;;;;;12.79;100.00;99433.28;5094458;28;20051;-77
2022/09/28 05:25:44;;;;;;;12.02;9.93;;;;;;;12.80;100.00;99429.50;5076442;28;20031;-76
2022/09/28 05:28:11;;;;;;;12.23;10.63;;;;;;;12.85;100.00;99443.91;5093295;28;20026;-77
2022/09/28 05:30:37;;;;;;;11.00;9.90;;;;;;;12.71;100.00;99426.38;5079442;28;20032;-78
2022/09/28 05:33:03;;;;;;;12.32;10.48;;;;;;;12.82;100.00;99449.78;5095067;28;20093;-79
2022/09/28 05:35:29;;;;;;;11.27;10.10;;;;;;;12.67;100.00;99436.88;5064680;28;20040;-79
2022/09/28 05:37:56;;;;;;;11.48;9.98;;;;;;;12.78;100.00;99447.81;5075835;28;20028;-78
2022/09/28 05:40:22;;;;;;;11.45;10.20;;;;;;;12.84;100.00;99446.81;5053986;28;20486;-77
2022/09/28 05:42:47;;;;;;;10.90;9.52;;;;;;;12.87;100.00;99446.34;5096274;28;20039;-79
2022/09/28 05:45:14;;;;;;;11.70;9.50;;;;;;;12.79;100.00;99439.47;5085947;28;20028;-78
2022/09/28 05:47:41;;;;;;;11.77;10.30;;;;;;;12.81;100.00;99448.13;5083356;28;20044;-81
2022/09/28 05:50:10;;;;;;;10.55;9.48;;;;;;;12.88;100.00;99454.22;5100183;28;20028;-79
2022/09/28 05:52:35;;;;;;;11.45;9.32;;;;;;;12.94;100.00;99450.50;5095529;28;20085;-78
2022/09/28 05:55:01;;;;;;;11.20;9.65;;;;;;;13.01;100.00;99458.41;5096620;28;20036;-78
2022/09/28 05:57:26;;;;;;;10.90;9.80;;;;;;;13.02;100.00;99461.97;5077568;28;20034;-79
2022/09/28 05:59:52;;;;;;;10.95;9.80;;;;;;;13.02;100.00;99465.47;5061259;28;20074;-77
2022/09/28 06:02:17;;;;;;;9.70;8.80;;;;;;;12.98;100.00;99468.91;5096220;28;20058;-80
2022/09/28 06:04:43;;;;;;;10.32;9.23;;;;;;;13.03;100.00;99461.69;5065359;28;20542;-79
2022/09/28 06:07:08;;;;;;;10.85;8.70;;;;;;;13.05;100.00;99464.16;5081580;28;20032;-79
2022/09/28 06:09:34;;;;;;;11.35;8.98;;;;;;;13.13;100.00;99467.25;5079899;28;20043;-79
2022/09/28 06:12:00;;;;;;;9.75;8.75;;;;;;;13.19;100.00;99478.94;5085149;23;20425;-79
2022/09/28 06:14:25;;;;;;;10.55;9.45;;;;;;;13.20;100.00;99472.47;5089499;28;20043;-79
2022/09/28 06:16:51;;;;;;;10.02;9.02;;;;;;;12.88;100.00;99421.81;5094478;28;20029;-79
2022/09/28 06:19:16;;;;;;;12.13;9.65;;;;;;;13.30;100.00;99488.84;5042023;28;20173;-79
2022/09/28 06:21:42;;;;;;;10.55;9.45;;;;;;;13.12;100.00;99462.91;5071311;28;20037;-79
2022/09/28 06:24:08;;;;;;;15.07;9.73;;;;;;;13.12;100.00;99454.00;5091185;28;20115;-78
2022/09/28 06:26:35;;;;;;;12.77;9.75;;;;;;;13.42;100.00;99486.03;5092228;28;20032;-78
2022/09/28 06:29:00;;;;;;;13.13;9.95;;;;;;;13.36;100.00;99489.75;5108283;27;20043;-78
2022/09/28 06:31:28;;;;;;;12.15;9.32;;;;;;;13.40;100.00;99483.56;5091606;28;20036;-78
2022/09/28 06:33:54;;;;;;;11.15;9.50;;;;;;;13.30;100.00;99491.53;5059686;28;20125;-79
2022/09/28 06:36:20;;;;;;;12.52;9.27;;;;;;;13.34;100.00;99490.00;5093688;28;20201;-79
2022/09/28 06:38:45;;;;;;;11.27;9.43;;;;;;;13.38;100.00;99484.91;5093606;28;20491;-78
2022/09/28 06:41:11;;;;;;;10.75;9.00;;;;;;;13.35;100.00;99494.34;5092110;28;20480;-78
2022/09/28 06:43:38;;;;;;;11.85;8.90;;;;;;;13.35;100.00;99496.22;5091916;28;20462;-79
2022/09/28 06:46:05;;;;;;;12.02;8.80;;;;;;;13.40;100.00;99504.38;5092772;28;20020;-79
2022/09/28 06:48:32;;;;;;;10.27;9.27;;;;;;;13.17;100.00;99468.38;5075218;28;20052;-79
2022/09/28 06:50:59;;;;;;;12.02;9.55;;;;;;;13.42;100.00;99506.84;5060922;28;20534;-78
2022/09/28 06:53:26;;;;;;;10.00;9.00;;;;;;;13.33;100.00;99509.16;5103703;27;20036;-78
2022/09/28 06:55:51;;;;;;;11.80;9.73;;;;;;;13.35;100.00;99501.63;5081897;28;20099;-78
2022/09/28 06:58:19;;;;;;;11.05;9.95;;;;;;;13.15;100.00;99475.94;5074124;28;20103;-78
2022/09/28 07:00:46;;;;;;;11.18;9.93;;;;;;;13.25;100.00;99496.09;5091062;28;20462;-78
2022/09/28 07:03:15;;;;;;;11.40;10.20;;;;;;;13.15;100.00;99497.53;5091718;28;20057;-79
2022/09/28 07:05:43;;;;;;;11.18;10.07;;;;;;;13.20;100.00;99498.66;5091167;28;20028;-79
2022/09/28 07:08:10;;;;;;;11.60;10.38;;;;;;;12.90;100.00;99449.34;5091010;28;20107;-80
2022/09/28 07:10:44;;;;;;;11.00;9.80;;;;;;;12.91;100.00;99469.06;5091557;28;20024;-78
2022/09/28 07:13:10;;;;;;;12.90;10.35;;;;;;;13.26;100.00;99505.81;5087727;28;20079;-79
2022/09/28 07:15:36;;;;;;;12.45;10.40;;;;;;;12.87;100.00;99465.22;5124846;27;20024;-79
2022/09/28 07:18:04;;;;;;;11.10;9.93;;;;;;;13.20;100.00;99504.88;5074147;28;20394;-79
2022/09/28 07:20:33;;;;;;;11.38;10.25;;;;;;;13.14;100.00;99512.13;5091191;28;20035;-79
2022/09/28 07:23:02;;;;;;;11.18;10.07;;;;;;;13.08;100.00;99514.97;5090152;28;20101;-79
2022/09/28 07:25:33;;;;;;;12.15;10.45;;;;;;;13.11;100.00;99515.31;5089328;28;20478;-79
2022/09/28 07:27:59;;;;;;;10.90;9.90;;;;;;;13.07;100.00;99508.75;5058629;28;20746;-79
2022/09/28 07:30:27;;;;;;;11.85;10.35;;;;;;;13.09;100.00;99525.53;5089523;28;20033;-79
2022/09/28 07:32:53;;;;;;;13.38;11.27;;;;;;;13.13;100.00;99526.66;5070559;28;20158;-79
2022/09/28 07:35:19;;;;;;;13.23;11.15;;;;;;;13.13;100.00;99532.06;5067754;28;20397;-77
2022/09/28 07:37:45;;;;;;;12.65;11.00;;;;;;;13.13;100.00;99528.53;5090811;28;20030;-78
2022/09/28 07:43:02;;;;;;;14.10;11.20;;;;;;;13.35;100.00;99517.84;5091365;28;20398;-78
2022/09/28 07:45:28;;;;;;;11.90;10.60;;;;;;;13.46;100.00;99533.13;5073751;28;20040;-78
2022/09/28 07:47:56;;;;;;;14.27;11.93;;;;;;;13.40;100.00;99526.00;5083205;28;20786;-79
2022/09/28 07:50:21;;;;;;;12.02;10.82;;;;;;;13.65;100.00;99535.53;5058466;28;20103;-78
2022/09/28 07:52:47;;;;;;;12.43;11.23;;;;;;;13.68;100.00;99532.34;5064616;28;20038;-78
2022/09/28 07:55:12;;;;;;;11.80;10.40;;;;;;;13.66;100.00;99537.16;5073508;28;20040;-78
2022/09/28 07:57:38;;;;;;;12.20;10.90;;;;;;;13.67;100.00;99542.31;5078025;28;20028;-78
2022/09/28 08:00:07;;;;;;;12.50;11.20;;;;;;;13.79;100.00;99544.91;5056859;28;20532;-78
2022/09/28 08:02:34;;;;;;;11.82;10.73;;;;;;;13.68;100.00;99532.34;5090636;28;20031;-78
2022/09/28 08:05:00;;;;;;;12.05;9.82;;;;;;;13.37;100.00;99512.97;5091926;28;20024;-78
2022/09/28 08:07:26;;;;;;;13.30;9.90;;;;;;;13.56;100.00;99530.53;5093097;28;20032;-78
2022/09/28 08:09:52;;;;;;;12.05;10.82;;;;;;;13.56;100.00;99533.25;5074172;28;20036;-78
2022/09/28 08:12:18;;;;;;;11.65;10.40;;;;;;;13.69;100.00;99536.66;5091471;28;20097;-78
2022/09/28 08:14:44;;;;;;;15.02;10.15;;;;;;;13.70;100.00;99538.28;5091039;28;20112;-79
2022/09/28 08:17:10;;;;;;;12.52;10.02;;;;;;;13.11;100.00;99458.59;5073001;28;20025;-78
2022/09/28 08:22:20;;;;;;;10.97;9.77;;;;;;;13.72;100.00;99547.78;5104214;28;20027;-78
2022/09/28 08:24:46;;;;;;;10.45;9.25;;;;;;;13.77;100.00;99538.91;5106126;28;20036;-78
2022/09/28 08:27:13;;;;;;;11.05;9.85;;;;;;;13.92;100.00;99539.13;5084014;28;20021;-78
2022/09/28 08:29:39;;;;;;;14.25;9.98;;;;;;;13.98;100.00;99542.72;5086502;28;20173;-77
2022/09/28 08:32:07;;;;;;;9.95;8.95;;;;;;;13.93;100.00;99535.34;5086394;28;20111;-79
2022/09/28 08:34:37;;;;;;;10.02;9.02;;;;;;;13.80;100.00;99536.53;5111460;27;20039;-78
2022/09/28 08:37:03;;;;;;;10.68;7.85;;;;;;;13.86;100.00;99540.13;5091313;28;20555;-79
2022/09/28 08:39:29;;;;;;;8.27;7.10;;;;;;;13.69;100.00;99540.19;5077459;28;20032;-78
2022/09/28 08:42:12;;;;;;;10.65;8.38;;;;;;;13.89;100.00;99522.59;5080523;28;20398;-79
2022/09/28 08:44:47;;;;;;;8.93;7.32;;;;;;;14.10;100.00;99540.66;5073667;28;20047;-79
2022/09/28 08:48:42;;;;;;;;;;;;;;;14.36;100.00;99540.94;5091809;28;20054;-78
2022/09/28 08:50:03;;;;;;;8.68;7.18;;;;;;;13.99;100.00;99496.47;5079395;28;19919;-79
2022/09/28 08:52:36;;;;;;;9.20;7.45;;;;;;;14.47;100.00;99539.97;5093941;28;20032;-79
2022/09/28 08:55:10;;;;;;;9.52;7.07;;;;;;;14.44;100.00;99535.91;5094528;28;20430;-78
2022/09/28 08:57:57;;;;;;;7.75;6.93;;;;;;;14.51;100.00;99546.56;5094453;28;20114;-79
2022/09/28 09:00:32;;;;;;;9.13;7.32;;;;;;;14.56;100.00;99536.56;5095238;28;20105;-78
2022/09/28 09:02:58;;;;;;;8.38;6.88;;;;;;;14.46;100.00;99544.56;5095326;28;20052;-79
2022/09/28 09:05:50;;;;;;;7.50;6.68;;;;;;;14.73;100.00;99527.53;5076971;28;20039;-79
2022/09/28 09:08:44;;;;;;;7.65;6.88;;;;;;;14.97;100.00;99538.84;5067402;28;20023;-79
2022/09/28 09:11:09;;;;;;;7.40;6.65;;;;;;;14.97;100.00;99550.50;5093839;28;20058;-79
2022/09/28 09:14:06;;;;;;;6.53;5.93;;;;;;;14.78;100.00;99554.66;5088640;28;20080;-79
2022/09/28 09:16:55;;;;;;;7.85;5.88;;;;;;;14.76;100.00;99560.31;5053308;28;20079;-79
2022/09/28 09:20:05;;;;;;;8.52;6.05;;;;;;;14.86;100.00;99564.19;5084566;28;20039;-79
2022/09/28 09:22:47;;;;;;;9.65;6.43;;;;;;;14.92;100.00;99555.84;5070905;28;20111;-79
2022/09/28 09:25:26;;;;;;;8.88;6.10;;;;;;;14.97;100.00;99539.66;5093910;28;20845;-79
2022/09/28 09:28:25;;;;;;;9.82;5.70;;;;;;;14.28;100.00;99486.22;5093654;28;20498;-79
2022/09/28 09:31:13;;;;;;;6.82;5.40;;;;;;;14.89;100.00;99569.09;5094109;28;20043;-79
2022/09/28 09:34:06;;;;;;;9.43;5.78;;;;;;;14.92;100.00;99558.56;5093626;28;20436;-79
2022/09/28 09:37:01;;;;;;;6.28;5.68;;;;;;;14.87;99.16;99553.13;5077707;28;20031;-79
2022/09/28 09:39:40;;;;;;;8.40;5.95;;;;;;;14.87;99.15;99563.16;5120419;27;20440;-79
2022/09/28 09:42:20;;;;;;;6.10;5.50;;;;;;;14.69;98.18;99545.38;5084702;28;20024;-79
2022/09/28 09:45:04;;;;;;;8.43;5.60;;;;;;;14.97;97.23;99571.34;5095460;28;20024;-79
2022/09/28 09:47:46;;;;;;;7.40;5.70;;;;;;;14.92;96.71;99565.88;5096047;28;20482;-79
2022/09/28 09:50:28;;;;;;;6.10;5.50;;;;;;;15.09;98.17;99585.53;5055417;28;20063;-80
2022/09/28 09:53:03;;;;;;;6.70;5.50;;;;;;;15.21;96.23;99566.38;5078107;28;20032;-79
2022/09/28 09:55:36;;;;;;;6.40;5.43;;;;;;;15.35;97.55;99564.84;5088602;28;20059;-80
2022/09/28 09:58:20;;;;;;;5.68;5.13;;;;;;;15.30;96.91;99566.69;5061564;28;20029;-80
2022/09/28 10:00:50;;;;;;;6.30;4.97;;;;;;;15.22;94.79;99576.13;5088309;28;20054;-79
2022/09/28 10:03:23;;;;;;;6.13;5.45;;;;;;;15.35;95.45;99574.88;5095056;28;20032;-80
2022/09/28 10:05:58;;;;;;;5.85;5.22;;;;;;;15.36;94.32;99566.47;5095970;28;20398;-80
2022/09/28 10:08:25;;;;;;;6.47;5.10;;;;;;;14.74;95.05;99466.91;5097904;28;20046;-79
2022/09/28 10:11:07;;;;;;;6.78;5.53;;;;;;;15.26;93.86;99558.28;5077831;28;20036;-80
2022/09/28 10:13:34;;;;;;;5.78;5.00;;;;;;;15.18;95.06;99577.75;5114628;27;20667;-81
2022/09/28 10:16:00;;;;;;;9.55;4.93;;;;;;;15.34;94.37;99570.56;5081261;28;20461;-80
2022/09/28 10:18:27;;;;;;;8.20;5.35;;;;;;;15.26;95.02;99564.53;5060901;28;20024;-79
2022/09/28 10:20:52;;;;;;;5.43;4.93;;;;;;;15.24;94.22;99571.28;5067688;28;20066;-80
2022/09/28 10:23:32;;;;;;;6.50;5.05;;;;;;;15.32;93.91;99572.69;5072757;28;20032;-80
2022/09/28 10:26:14;;;;;;;5.70;5.18;;;;;;;15.37;94.09;99561.91;5094834;28;20452;-80
2022/09/28 10:28:54;;;;;;;6.90;5.22;;;;;;;15.35;93.54;99585.72;5070270;28;20111;-80
2022/09/28 10:31:34;;;;;;;6.13;5.47;;;;;;;15.28;92.99;99561.56;5087191;28;20039;-80
2022/09/28 10:33:59;;;;;;;10.20;5.03;;;;;;;15.43;92.29;99583.34;5093797;28;20510;-80
2022/09/28 10:36:25;;;;;;;6.50;4.97;;;;;;;15.34;92.57;99584.91;5076010;28;20059;-80
2022/09/28 10:38:52;;;;;;;8.38;5.57;;;;;;;15.47;91.66;99576.31;5092720;28;20536;-80
2022/09/28 10:41:21;;;;;;;7.57;5.20;;;;;;;15.57;90.94;99563.91;5076589;28;20038;-80
2022/09/28 10:44:06;;;;;;;7.82;4.72;;;;;;;15.57;89.63;99585.63;5110630;27;20042;-80
2022/09/28 10:46:33;;;;;;;6.43;4.95;;;;;;;15.67;90.20;99594.66;5093168;28;20028;-80
2022/09/28 10:49:15;;;;;;;7.57;4.80;;;;;;;15.60;87.98;99585.09;5076580;28;20036;-79
2022/09/28 10:51:46;;;;;;;7.22;4.78;;;;;;;15.69;90.01;99581.66;5093276;28;20380;-80
2022/09/28 10:54:15;;;;;;;6.32;4.28;;;;;;;15.52;87.96;99595.31;5093036;28;20023;-79
2022/09/28 10:56:41;;;;;;;5.18;3.92;;;;;;;15.26;88.44;99571.81;5093914;28;20036;-80
2022/09/28 10:59:45;;;;;;;4.55;4.05;;;;;;;15.21;87.60;99602.44;5076751;28;20514;-79
2022/09/28 11:02:23;;;;;;;5.13;4.13;;;;;;;15.09;87.89;99596.34;5065995;28;20396;-79
2022/09/28 11:04:51;;;;;;;5.38;4.57;;;;;;;15.18;87.33;99604.84;5055894;28;20115;-79
2022/09/28 11:07:27;;;;;;;4.57;3.88;;;;;;;15.06;87.27;99585.22;5086561;28;20031;-79
2022/09/28 11:09:54;;;;;;;5.65;4.00;;;;;;;15.08;87.55;99564.94;5090509;28;20028;-79
2022/09/28 11:12:27;;;;;;;5.30;4.40;;;;;;;15.22;86.53;99595.09;5091847;28;20507;-79
2022/09/28 11:15:01;;;;;;;4.70;4.20;;;;;;;14.94;84.84;99551.00;5093280;28;20089;-78
2022/09/28 11:17:42;;;;;;;5.40;4.22;;;;;;;15.46;86.18;99600.97;5090902;28;20070;-79
2022/09/28 11:20:23;;;;;;;4.97;4.10;;;;;;;15.62;84.82;99599.19;5060179;28;20072;-79
2022/09/28 11:22:50;;;;;;;4.28;3.72;;;;;;;15.47;83.82;99598.00;5089430;28;20028;-79
2022/09/28 11:25:16;;;;;;;4.55;3.72;;;;;;;15.48;85.10;99609.66;5078805;28;20059;-79
2022/09/28 11:27:42;;;;;;;5.88;4.30;;;;;;;15.57;84.05;99612.72;5088672;28;20055;-80
2022/09/28 11:30:28;;;;;;;5.28;4.10;;;;;;;15.71;82.46;99611.22;5092216;28;20024;-79
2022/09/28 11:32:59;;;;;;;5.28;4.30;;;;;;;15.74;84.17;99614.22;5084465;28;20236;-79
2022/09/28 11:35:30;;;;;;;4.70;3.92;;;;;;;15.66;83.79;99614.72;5091016;28;20518;-79
2022/09/28 11:38:11;;;;;;;4.50;4.05;;;;;;;15.82;83.51;99631.06;5091157;28;20464;-80
2022/09/28 11:41:09;;;;;;;6.50;4.18;;;;;;;15.98;82.31;99622.75;5090695;28;20028;-79
2022/09/28 11:43:56;;;;;;;6.20;4.50;;;;;;;15.90;81.82;99623.25;5091226;28;20020;-79
2022/09/28 11:46:37;;;;;;;4.85;3.70;;;;;;;15.01;82.22;99492.00;5063264;28;20111;-79